createdAt,value
2022-09-22T00:05:03.786Z,12.30
2022-09-22T00:10:07.796Z,12.30
2022-09-22T00:15:11.807Z,12.30
2022-09-22T00:20:17.726Z,12.20
2022-09-22T00:25:21.097Z,12.10
2022-09-22T00:30:25.012Z,12.20
2022-09-22T00:35:29.779Z,12.20
2022-09-22T00:40:33.347Z,12.20
2022-09-22T00:45:36.815Z,12.10
2022-09-22T00:50:42.049Z,12.00
2022-09-22T00:55:50.700Z,12.00
2022-09-22T01:00:54.378Z,11.80
2022-09-22T01:06:02.194Z,11.70
2022-09-22T01:11:06.548Z,11.60
2022-09-22T01:16:22.713Z,11.70
2022-09-22T01:21:41.725Z,11.70
2022-09-22T01:27:21.988Z,11.60
2022-09-22T01:32:32.393Z,11.60
2022-09-22T01:37:45.429Z,11.50
2022-09-22T01:42:53.808Z,11.40
2022-09-22T01:48:02.855Z,11.20
2022-09-22T01:53:11.318Z,11.10
2022-09-22T01:58:18.920Z,11.00
2022-09-22T02:03:28.886Z,10.90
2022-09-22T02:08:37.423Z,10.90
2022-09-22T02:13:41.411Z,10.80
2022-09-22T02:18:54.311Z,10.80
2022-09-22T02:23:57.728Z,10.80
2022-09-22T02:29:04.470Z,10.80
2022-09-22T02:34:09.857Z,10.80
2022-09-22T02:39:17.871Z,10.80
2022-09-22T02:44:26.271Z,10.70
2022-09-22T02:49:31.503Z,10.60
2022-09-22T02:54:34.913Z,10.50
2022-09-22T02:59:38.559Z,10.50
2022-09-22T03:04:43.261Z,10.50
2022-09-22T03:09:46.588Z,10.50
2022-09-22T03:14:49.969Z,10.50
2022-09-22T03:19:54.937Z,10.50
2022-09-22T03:24:58.290Z,10.60
2022-09-22T03:30:04.083Z,10.50
2022-09-22T03:35:10.167Z,10.40
2022-09-22T03:40:13.505Z,10.20
2022-09-22T03:45:17.731Z,10.20
2022-09-22T03:50:22.932Z,10.10
2022-09-22T03:55:26.439Z,10.00
2022-09-22T04:00:29.883Z,10.00
2022-09-22T04:05:35.122Z,9.90
2022-09-22T04:10:38.501Z,9.90
2022-09-22T04:15:42.069Z,9.80
2022-09-22T04:20:46.793Z,9.80
2022-09-22T04:25:50.121Z,9.80
2022-09-22T04:30:53.558Z,9.80
2022-09-22T04:35:58.373Z,9.80
2022-09-22T04:41:02.476Z,9.80
2022-09-22T04:46:06.301Z,9.80
2022-09-22T04:51:11.089Z,9.70
2022-09-22T04:56:14.962Z,9.70
2022-09-22T05:01:18.373Z,9.60
2022-09-22T05:06:23.141Z,9.60
2022-09-22T05:11:26.477Z,9.50
2022-09-22T05:16:32.308Z,9.50
2022-09-22T05:21:37.331Z,9.50
2022-09-22T05:26:40.642Z,9.60
2022-09-22T05:31:44.191Z,9.60
2022-09-22T05:36:48.940Z,9.60
2022-09-22T05:41:52.579Z,9.50
2022-09-22T05:46:55.932Z,9.50
2022-09-22T05:52:00.830Z,9.40
2022-09-22T05:57:04.264Z,9.40
2022-09-22T06:02:23.855Z,9.40
2022-09-22T06:07:30.777Z,9.40
2022-09-22T06:12:34.157Z,9.40
2022-09-22T06:17:37.518Z,9.40
2022-09-22T06:22:42.497Z,9.30
2022-09-22T06:27:47.033Z,9.30
2022-09-22T06:32:55.230Z,9.40
2022-09-22T06:38:00.257Z,9.50
2022-09-22T06:43:10.724Z,9.60
2022-09-22T06:48:14.737Z,9.60
2022-09-22T06:53:21.683Z,9.60
2022-09-22T06:58:28.060Z,9.80
2022-09-22T07:03:33.216Z,9.90
2022-09-22T07:08:39.997Z,10.10
2022-09-22T07:13:45.644Z,10.20
2022-09-22T07:18:50.491Z,10.30
2022-09-22T07:23:57.306Z,10.50
2022-09-22T07:29:02.317Z,10.60
2022-09-22T07:34:07.073Z,10.70
2022-09-22T07:39:12.166Z,10.80
2022-09-22T07:44:33.915Z,10.80
2022-09-22T07:49:38.691Z,10.90
2022-09-22T07:54:43.371Z,11.00
2022-09-22T07:59:46.717Z,11.00
2022-09-22T08:04:50.147Z,11.10
2022-09-22T08:09:55.132Z,11.30
2022-09-22T08:14:58.674Z,11.40
2022-09-22T08:20:04.957Z,11.50
2022-09-22T08:25:12.840Z,11.60
2022-09-22T08:30:20.153Z,11.70
2022-09-22T08:35:24.277Z,11.80
2022-09-22T08:40:31.468Z,11.90
2022-09-22T08:45:39.324Z,12.00
2022-09-22T08:51:07.754Z,12.00
2022-09-22T08:56:22.245Z,12.20
2022-09-22T09:01:46.296Z,12.30
2022-09-22T09:06:56.674Z,12.50
2022-09-22T09:12:25.109Z,12.60
2022-09-22T09:17:31.601Z,12.70
2022-09-22T09:22:43.672Z,12.70
2022-09-22T09:27:57.309Z,12.80
2022-09-22T09:33:03.272Z,12.90
2022-09-22T09:38:12.351Z,13.10
2022-09-22T09:43:17.738Z,13.20
2022-09-22T09:48:34.798Z,13.30
2022-09-22T09:53:43.269Z,13.50
2022-09-22T09:59:14.017Z,13.70
2022-09-22T10:04:28.555Z,13.80
2022-09-22T10:09:32.392Z,14.00
2022-09-22T10:14:37.170Z,14.00
2022-09-22T10:19:40.575Z,14.10
2022-09-22T10:24:54.506Z,14.30
2022-09-22T10:30:24.625Z,14.40
2022-09-22T10:35:45.803Z,14.50
2022-09-22T10:40:57.420Z,14.70
2022-09-22T10:46:17.142Z,14.90
2022-09-22T10:51:33.169Z,15.10
2022-09-22T10:56:40.671Z,15.30
2022-09-22T11:02:00.432Z,15.20
2022-09-22T11:07:37.137Z,15.30
2022-09-22T11:12:50.118Z,15.50
2022-09-22T11:18:10.806Z,15.50
2022-09-22T11:23:52.014Z,15.60
2022-09-22T11:29:07.833Z,15.80
2022-09-22T11:34:46.361Z,16.00
2022-09-22T11:40:10.895Z,16.00
2022-09-22T11:45:31.334Z,16.00
2022-09-22T11:50:53.139Z,16.30
2022-09-22T11:56:33.406Z,16.50
2022-09-22T12:01:40.240Z,16.70
2022-09-22T12:06:47.755Z,16.90
2022-09-22T12:11:55.963Z,17.20
2022-09-22T12:17:04.220Z,17.20
2022-09-22T12:22:15.885Z,17.10
2022-09-22T12:27:24.037Z,17.10
2022-09-22T12:32:33.047Z,17.20
2022-09-22T12:37:39.360Z,17.30
2022-09-22T12:42:49.586Z,17.30
2022-09-22T12:47:55.373Z,17.30
2022-09-22T12:53:04.233Z,17.40
2022-09-22T12:58:43.237Z,17.60
2022-09-22T13:03:50.851Z,17.70
2022-09-22T13:09:20.455Z,18.00
2022-09-22T13:15:13.118Z,18.20
2022-09-22T13:20:31.894Z,18.40
2022-09-22T13:25:35.613Z,18.30
2022-09-22T13:30:40.573Z,18.20
2022-09-22T13:35:46.260Z,18.20
2022-09-22T13:40:51.115Z,18.20
2022-09-22T13:45:55.110Z,18.30
2022-09-22T13:51:03.407Z,18.50
2022-09-22T13:56:15.928Z,18.70
2022-09-22T14:01:23.844Z,18.80
2022-09-22T14:06:32.229Z,18.90
2022-09-22T14:11:37.987Z,19.10
2022-09-22T14:16:49.429Z,19.20
2022-09-22T14:21:58.021Z,19.20
2022-09-22T14:27:04.507Z,19.30
2022-09-22T14:32:13.112Z,19.40
2022-09-22T14:37:24.863Z,19.60
2022-09-22T14:42:30.221Z,19.80
2022-09-22T14:47:39.414Z,19.90
2022-09-22T14:52:54.427Z,20.00
2022-09-22T14:58:02.118Z,20.00
2022-09-22T15:03:16.339Z,20.10
2022-09-22T15:08:27.715Z,20.20
2022-09-22T15:13:38.389Z,20.10
2022-09-22T15:18:41.782Z,19.70
2022-09-22T15:23:49.308Z,19.30
2022-09-22T15:28:55.242Z,18.90
2022-09-22T15:34:03.092Z,18.50
2022-09-22T15:39:14.341Z,18.30
2022-09-22T15:44:18.381Z,18.00
2022-09-22T15:49:26.351Z,17.90
2022-09-22T15:54:32.621Z,17.80
2022-09-22T15:59:38.917Z,17.50
2022-09-22T16:04:42.295Z,17.40
2022-09-22T16:09:47.732Z,17.30
2022-09-22T16:14:52.163Z,17.20
2022-09-22T16:19:57.262Z,17.20
2022-09-22T16:25:03.138Z,17.10
2022-09-22T16:30:08.879Z,17.10
2022-09-22T16:35:14.269Z,17.10
2022-09-22T16:40:20.030Z,17.20
2022-09-22T16:45:38.024Z,17.30
2022-09-22T16:50:46.367Z,17.30
2022-09-22T16:55:51.714Z,17.30
2022-09-22T17:00:56.075Z,17.10
2022-09-22T17:06:05.615Z,16.90
2022-09-22T17:11:12.246Z,16.70
2022-09-22T17:16:22.275Z,16.60
2022-09-22T17:21:26.042Z,16.50
2022-09-22T17:26:33.361Z,16.50
2022-09-22T17:31:37.021Z,16.30
2022-09-22T17:36:40.383Z,16.20
2022-09-22T17:41:47.079Z,16.20
2022-09-22T17:47:09.605Z,16.20
2022-09-22T17:52:30.507Z,16.10
2022-09-22T17:57:37.755Z,16.10
2022-09-22T18:02:41.701Z,16.00
2022-09-22T18:07:45.858Z,16.00
2022-09-22T18:12:55.986Z,15.90
2022-09-22T18:17:59.995Z,15.80
2022-09-22T18:23:03.774Z,15.50
2022-09-22T18:28:08.674Z,15.40
2022-09-22T18:33:13.405Z,15.10
2022-09-22T18:38:16.808Z,14.80
2022-09-22T18:43:21.477Z,14.60
2022-09-22T18:48:25.063Z,14.60
2022-09-22T18:53:28.371Z,14.70
2022-09-22T18:58:33.789Z,14.70
2022-09-22T19:03:37.155Z,14.80
2022-09-22T19:08:40.553Z,14.80
2022-09-22T19:13:45.461Z,14.80
2022-09-22T19:18:49.993Z,14.70
2022-09-22T19:23:53.978Z,14.70
2022-09-22T19:28:58.941Z,14.50
2022-09-22T19:34:04.587Z,14.40
2022-09-22T19:39:09.353Z,14.40
2022-09-22T19:44:15.508Z,14.30
2022-09-22T19:49:19.345Z,14.30
2022-09-22T19:54:22.789Z,14.00
2022-09-22T19:59:27.832Z,13.80
2022-09-22T20:04:34.315Z,13.60
2022-09-22T20:09:38.247Z,13.60
2022-09-22T20:14:43.155Z,13.50
2022-09-22T20:19:47.864Z,13.40
2022-09-22T20:24:55.631Z,13.50
2022-09-22T20:30:01.610Z,13.40
2022-09-22T20:35:09.922Z,13.40
2022-09-22T20:40:16.184Z,13.40
2022-09-22T20:45:22.989Z,13.40
2022-09-22T20:50:26.453Z,13.40
2022-09-22T20:55:30.011Z,13.30
2022-09-22T21:00:35.106Z,13.30
2022-09-22T21:05:39.242Z,13.10
2022-09-22T21:10:43.370Z,12.90
2022-09-22T21:15:48.672Z,12.70
2022-09-22T21:20:55.841Z,12.70
2022-09-22T21:26:01.809Z,12.80
2022-09-22T21:31:15.574Z,12.80
2022-09-22T21:36:22.572Z,12.80
2022-09-22T21:41:28.149Z,12.60
2022-09-22T21:46:34.792Z,12.40
2022-09-22T21:51:42.146Z,12.30
2022-09-22T21:56:48.341Z,12.20
2022-09-22T22:01:53.103Z,12.30
2022-09-22T22:06:56.419Z,12.30
2022-09-22T22:11:59.827Z,12.10
2022-09-22T22:17:06.787Z,12.00
2022-09-22T22:22:11.417Z,12.10
2022-09-22T22:27:16.828Z,12.20
2022-09-22T22:32:21.823Z,12.20
2022-09-22T22:37:25.359Z,12.20
2022-09-22T22:42:28.692Z,12.00
2022-09-22T22:47:34.227Z,11.80
2022-09-22T22:52:40.039Z,11.80
2022-09-22T22:57:43.333Z,11.70
2022-09-22T23:02:48.214Z,11.60
2022-09-22T23:07:53.559Z,11.10
2022-09-22T23:12:56.950Z,10.80
2022-09-22T23:18:01.640Z,10.80
2022-09-22T23:23:05.194Z,10.80
2022-09-22T23:28:08.890Z,10.70
2022-09-22T23:33:14.461Z,10.80
2022-09-22T23:38:17.792Z,10.90
2022-09-22T23:43:21.554Z,10.80
2022-09-22T23:48:29.298Z,10.90
2022-09-22T23:53:34.825Z,10.80
2022-09-22T23:58:39.122Z,10.70
